Time;durP1;ratioP1;P1;durP2;ratioP2;P2;SDS_P1;SDS_P2;PMS_P1;PMS_P2;Temp;Humidity;BMP_temperature;BMP_pressure;BME280_temperature;BME280_humidity;BME280_pressure;Samples;Min_cycle;Max_cycle;Signal;HPM_P1;HPM_P2
2021/06/19 00:00:31;;;;;;;13.98;6.07;;;22.10;89.50;;;;;;5076352;28;20024;-77
2021/06/19 00:02:59;;;;;;;9.13;6.30;;;22.10;89.60;;;;;;5076434;28;20024;-76
2021/06/19 00:05:25;;;;;;;10.20;6.68;;;22.10;89.70;;;;;;5075143;28;20020;-77
2021/06/19 00:07:51;;;;;;;9.35;6.05;;;22.10;89.80;;;;;;5058343;28;20061;-77
2021/06/19 00:10:18;;;;;;;12.02;6.07;;;22.00;90.10;;;;;;5076514;28;20435;-77
2021/06/19 00:12:45;;;;;;;10.63;5.93;;;22.00;89.90;;;;;;5076275;28;20025;-77
2021/06/19 00:15:14;;;;;;;9.20;6.13;;;22.00;90.00;;;;;;5074980;28;20037;-77
2021/06/19 00:17:40;;;;;;;14.73;7.30;;;21.90;90.10;;;;;;5076143;28;20028;-77
2021/06/19 00:20:17;;;;;;;11.63;6.78;;;21.90;90.40;;;;;;5076052;28;20073;-76
2021/06/19 00:22:43;;;;;;;10.73;6.85;;;21.90;90.30;;;;;;5075973;28;20020;-77
2021/06/19 00:25:11;;;;;;;10.60;7.05;;;21.90;90.40;;;;;;5075900;28;20487;-77
2021/06/19 00:27:37;;;;;;;11.52;6.97;;;21.90;90.50;;;;;;5075872;28;20040;-76
2021/06/19 00:30:08;;;;;;;11.50;6.53;;;21.80;90.60;;;;;;5074803;28;20032;-76
2021/06/19 00:32:34;;;;;;;11.25;7.50;;;21.80;90.70;;;;;;5074405;28;20377;-76
2021/06/19 00:35:00;;;;;;;10.43;6.88;;;21.80;90.60;;;;;;5075604;28;20036;-77
2021/06/19 00:37:26;;;;;;;10.20;6.43;;;21.80;90.60;;;;;;5075419;28;20040;-78
2021/06/19 00:39:52;;;;;;;8.60;6.22;;;21.70;90.50;;;;;;5074375;28;20024;-76
2021/06/19 00:42:21;;;;;;;10.55;5.60;;;21.70;90.50;;;;;;5075790;28;20033;-76
2021/06/19 00:44:47;;;;;;;8.68;4.32;;;21.70;90.50;;;;;;5075049;28;20491;-77
2021/06/19 00:47:13;;;;;;;9.50;4.57;;;21.70;90.30;;;;;;5074542;28;20047;-77
2021/06/19 00:49:39;;;;;;;8.00;3.65;;;21.70;90.10;;;;;;5074558;28;20569;-76
2021/06/19 00:52:05;;;;;;;8.40;3.15;;;21.70;90.00;;;;;;5074184;28;20488;-76
2021/06/19 00:54:31;;;;;;;6.93;3.17;;;21.70;89.90;;;;;;5075428;28;20031;-76
2021/06/19 00:56:57;;;;;;;5.63;2.53;;;21.70;89.50;;;;;;5075055;28;20056;-76
2021/06/19 00:59:22;;;;;;;6.65;2.50;;;21.70;89.00;;;;;;5075405;28;20023;-76
2021/06/19 01:01:48;;;;;;;3.55;2.22;;;21.60;88.80;;;;;;5075488;28;20466;-76
2021/06/19 01:04:14;;;;;;;3.53;2.00;;;21.70;88.60;;;;;;5074154;28;20518;-76
2021/06/19 01:06:41;;;;;;;3.47;1.95;;;21.70;88.40;;;;;;5075058;28;20086;-76
2021/06/19 01:09:08;;;;;;;5.50;1.70;;;21.60;88.10;;;;;;5075363;28;20033;-76
2021/06/19 01:11:34;;;;;;;5.38;1.50;;;21.60;87.90;;;;;;5073962;28;20103;-77
2021/06/19 01:14:00;;;;;;;4.20;1.58;;;21.60;87.70;;;;;;5075056;28;20037;-77
2021/06/19 01:16:26;;;;;;;2.63;1.40;;;21.60;88.20;;;;;;5074961;28;20036;-76
2021/06/19 01:18:52;;;;;;;3.83;1.35;;;21.60;87.50;;;;;;5073710;28;20027;-76
2021/06/19 01:21:20;;;;;;;3.80;1.33;;;21.60;87.40;;;;;;5074824;28;20508;-77
2021/06/19 01:23:47;;;;;;;2.17;1.38;;;21.60;87.30;;;;;;5074805;28;20028;-78
2021/06/19 01:26:18;;;;;;;5.18;2.03;;;21.60;87.20;;;;;;5074875;28;20472;-78
2021/06/19 01:28:44;;;;;;;4.05;1.27;;;21.60;87.20;;;;;;5074874;28;20035;-76
2021/06/19 01:31:11;;;;;;;3.20;1.30;;;21.50;87.00;;;;;;5073353;28;20017;-77
2021/06/19 01:33:41;;;;;;;2.75;1.35;;;21.50;87.00;;;;;;5074663;28;20036;-76
2021/06/19 01:36:08;;;;;;;4.28;1.40;;;21.50;87.00;;;;;;5073199;28;20025;-77
2021/06/19 01:38:45;;;;;;;3.08;1.50;;;21.60;87.10;;;;;;5074490;28;20029;-77
2021/06/19 01:41:18;;;;;;;5.18;1.50;;;21.50;87.10;;;;;;5073172;28;20024;-76
2021/06/19 01:43:45;;;;;;;4.75;1.48;;;21.50;87.10;;;;;;5074483;28;20101;-76
2021/06/19 01:46:12;;;;;;;3.33;1.35;;;21.50;87.80;;;;;;5056422;28;20035;-77
2021/06/19 01:48:39;;;;;;;3.30;1.80;;;21.50;87.20;;;;;;5056573;28;20035;-77
2021/06/19 01:51:09;;;;;;;3.05;1.55;;;21.50;87.20;;;;;;5073269;28;20430;-76
2021/06/19 01:53:38;;;;;;;3.97;1.90;;;21.40;87.20;;;;;;5072952;28;20048;-77
2021/06/19 01:56:05;;;;;;;2.55;1.50;;;21.40;87.20;;;;;;5073810;28;20082;-77
2021/06/19 01:58:30;;;;;;;4.50;1.60;;;21.40;87.40;;;;;;5072294;28;20048;-77
2021/06/19 02:00:56;;;;;;;5.40;2.00;;;21.40;87.60;;;;;;5072810;28;20419;-78
2021/06/19 02:03:22;;;;;;;3.92;1.92;;;21.40;87.50;;;;;;5072970;28;20055;-76
2021/06/19 02:05:47;;;;;;;3.70;2.17;;;21.40;87.80;;;;;;5072640;28;20372;-77
2021/06/19 02:08:13;;;;;;;4.10;2.17;;;21.30;87.80;;;;;;5056270;28;20041;-76
2021/06/19 02:10:41;;;;;;;4.13;2.47;;;21.30;87.90;;;;;;5073823;28;20124;-78
2021/06/19 02:13:08;;;;;;;5.78;2.47;;;21.30;88.00;;;;;;5055932;28;20066;-77
2021/06/19 02:15:34;;;;;;;6.10;2.10;;;21.30;88.10;;;;;;5072558;28;20073;-76
2021/06/19 02:18:00;;;;;;;2.80;1.98;;;21.30;88.30;;;;;;5072477;28;20127;-76
2021/06/19 02:20:27;;;;;;;3.20;2.25;;;21.20;88.30;;;;;;5073719;28;20103;-77
2021/06/19 02:22:53;;;;;;;5.05;2.38;;;21.20;88.50;;;;;;5055860;28;20460;-78
2021/06/19 02:25:23;;;;;;;6.22;2.00;;;21.20;88.50;;;;;;5072432;28;20035;-78
2021/06/19 02:28:01;;;;;;;3.70;2.28;;;21.20;88.60;;;;;;5073613;28;20028;-77
2021/06/19 02:30:29;;;;;;;5.55;2.58;;;21.10;89.40;;;;;;5072282;28;20022;-77
2021/06/19 02:32:56;;;;;;;4.13;2.75;;;21.10;88.90;;;;;;5073655;28;20036;-77
2021/06/19 02:35:24;;;;;;;5.18;2.75;;;21.10;89.00;;;;;;5074022;28;20460;-76
2021/06/19 02:37:50;;;;;;;5.90;3.05;;;21.10;89.10;;;;;;5072131;28;20035;-76
2021/06/19 02:40:16;;;;;;;5.88;2.72;;;21.10;89.40;;;;;;5073482;28;20111;-77
2021/06/19 02:42:42;;;;;;;7.93;3.03;;;21.10;89.60;;;;;;5072112;28;20017;-76
2021/06/19 02:45:12;;;;;;;4.68;2.50;;;21.00;89.60;;;;;;5073336;28;20025;-76
2021/06/19 02:47:39;;;;;;;5.25;3.50;;;21.00;89.80;;;;;;5073284;28;20035;-76
2021/06/19 02:50:06;;;;;;;5.82;3.28;;;21.00;89.80;;;;;;5073243;28;20033;-76
2021/06/19 02:52:32;;;;;;;3.83;3.10;;;21.00;90.00;;;;;;5072011;28;20044;-76
2021/06/19 02:54:58;;;;;;;4.30;3.15;;;21.00;90.00;;;;;;5073197;28;20029;-76
2021/06/19 02:57:24;;;;;;;5.13;3.35;;;21.00;90.00;;;;;;5072896;28;20119;-76
2021/06/19 02:59:49;;;;;;;8.95;3.88;;;21.10;90.10;;;;;;5071942;28;20138;-76
2021/06/19 03:02:15;;;;;;;5.35;3.70;;;21.10;90.10;;;;;;5071908;28;20025;-77
2021/06/19 03:04:40;;;;;;;6.47;3.47;;;21.10;90.10;;;;;;5072160;28;20024;-77
2021/06/19 03:07:06;;;;;;;4.45;3.05;;;21.20;90.20;;;;;;5071949;28;20032;-76
2021/06/19 03:09:31;;;;;;;4.72;3.75;;;21.10;90.20;;;;;;5072817;28;20029;-76
2021/06/19 03:11:57;;;;;;;5.10;3.33;;;21.20;90.20;;;;;;5071863;28;20036;-76
2021/06/19 03:14:23;;;;;;;5.97;2.97;;;21.20;90.20;;;;;;5071658;28;20503;-77
2021/06/19 03:16:48;;;;;;;5.30;3.45;;;21.20;90.20;;;;;;5054874;28;20515;-76
2021/06/19 03:19:14;;;;;;;5.20;3.28;;;21.20;90.20;;;;;;5072907;28;20024;-78
2021/06/19 03:21:42;;;;;;;5.63;3.47;;;21.20;90.20;;;;;;5071791;28;20028;-76
2021/06/19 03:24:08;;;;;;;7.25;3.67;;;21.30;90.20;;;;;;5071666;28;20091;-77
2021/06/19 03:26:34;;;;;;;4.78;3.67;;;21.20;90.20;;;;;;5071863;28;20110;-76
2021/06/19 03:28:59;;;;;;;4.85;3.70;;;21.20;90.20;;;;;;5071759;28;20112;-76
2021/06/19 03:31:27;;;;;;;4.78;4.00;;;21.20;90.30;;;;;;5072862;28;20043;-76
2021/06/19 03:33:53;;;;;;;5.45;3.17;;;21.20;90.20;;;;;;5055378;28;20499;-76
2021/06/19 03:36:19;;;;;;;5.30;3.40;;;21.30;90.20;;;;;;5071436;28;20028;-76
2021/06/19 03:38:44;;;;;;;6.13;3.22;;;21.30;90.30;;;;;;5071341;28;20078;-77
2021/06/19 03:41:10;;;;;;;8.52;5.05;;;21.30;90.30;;;;;;5072710;28;20512;-76
2021/06/19 03:43:35;;;;;;;5.45;4.50;;;21.30;90.30;;;;;;5072646;28;20028;-76
2021/06/19 03:46:01;;;;;;;8.15;5.88;;;21.30;90.20;;;;;;5071602;28;20025;-76
2021/06/19 03:48:27;;;;;;;7.70;5.13;;;21.30;90.20;;;;;;5071438;28;20113;-76
2021/06/19 03:50:52;;;;;;;6.68;5.20;;;21.30;90.10;;;;;;5072630;28;20154;-76
2021/06/19 03:53:18;;;;;;;8.98;4.95;;;21.30;90.10;;;;;;5072591;28;20468;-76
2021/06/19 03:55:43;;;;;;;8.75;5.55;;;21.30;90.10;;;;;;5072534;28;20498;-76
2021/06/19 03:58:09;;;;;;;8.55;6.45;;;21.30;90.00;;;;;;5054418;28;20040;-76
2021/06/19 04:00:35;;;;;;;9.75;6.45;;;21.20;90.00;;;;;;5074036;28;20043;-76
2021/06/19 04:03:02;;;;;;;9.60;6.28;;;21.30;90.20;;;;;;5074065;28;20077;-76
2021/06/19 04:05:27;;;;;;;8.73;5.47;;;21.30;90.00;;;;;;5090552;28;20025;-76
2021/06/19 04:07:54;;;;;;;8.40;6.80;;;21.30;89.90;;;;;;5072993;28;20471;-76
2021/06/19 04:10:20;;;;;;;7.65;5.97;;;21.30;89.80;;;;;;5091382;28;20384;-76
2021/06/19 04:12:46;;;;;;;8.70;6.68;;;21.30;89.80;;;;;;5092651;28;20021;-76
2021/06/19 04:15:14;;;;;;;10.75;6.93;;;21.30;89.80;;;;;;5090305;28;20039;-77
2021/06/19 04:17:41;;;;;;;8.27;5.65;;;21.30;89.70;;;;;;5090423;28;20078;-76
2021/06/19 04:20:08;;;;;;;8.40;6.22;;;21.30;89.70;;;;;;5091368;28;20038;-76
2021/06/19 04:22:34;;;;;;;9.40;6.93;;;21.30;89.70;;;;;;5095644;28;20494;-76
2021/06/19 04:25:00;;;;;;;9.25;5.40;;;21.30;89.70;;;;;;5094872;28;20020;-76
2021/06/19 04:27:26;;;;;;;7.03;5.93;;;21.30;89.70;;;;;;5077875;28;20108;-76
2021/06/19 04:29:51;;;;;;;8.93;7.00;;;21.30;89.60;;;;;;5077259;28;20039;-76
2021/06/19 04:32:19;;;;;;;10.27;6.05;;;21.30;89.60;;;;;;5095940;28;20154;-77
2021/06/19 04:34:45;;;;;;;8.80;6.05;;;21.30;89.60;;;;;;5095881;28;20032;-76
2021/06/19 04:37:14;;;;;;;10.38;6.97;;;21.30;89.50;;;;;;5094533;28;20035;-76
2021/06/19 04:39:54;;;;;;;8.82;6.32;;;21.30;89.60;;;;;;5095716;28;20031;-76
2021/06/19 04:42:20;;;;;;;9.50;6.53;;;21.30;89.60;;;;;;5095736;28;20440;-76
2021/06/19 04:47:25;;;;;;;8.13;6.22;;;21.40;89.80;;;;;;5094840;28;20032;-76
2021/06/19 04:49:52;;;;;;;7.68;5.32;;;21.30;89.80;;;;;;5094483;28;20036;-76
2021/06/19 04:52:17;;;;;;;10.80;4.68;;;21.40;90.00;;;;;;5094349;28;20024;-75
2021/06/19 04:54:43;;;;;;;6.25;4.00;;;21.40;90.00;;;;;;5077455;28;20089;-76
2021/06/19 04:57:10;;;;;;;5.40;3.80;;;21.40;90.00;;;;;;5095347;28;20047;-76
2021/06/19 04:59:36;;;;;;;4.93;2.95;;;21.40;90.00;;;;;;5095622;28;20107;-75
2021/06/19 05:02:02;;;;;;;6.00;3.72;;;21.40;90.00;;;;;;5094207;28;20459;-78
2021/06/19 05:04:28;;;;;;;7.10;3.72;;;21.40;90.00;;;;;;5094170;28;20078;-77
2021/06/19 05:06:55;;;;;;;6.88;4.05;;;21.40;90.00;;;;;;5095325;28;20082;-76
2021/06/19 05:09:20;;;;;;;6.05;3.60;;;21.40;90.00;;;;;;5095275;28;20089;-77
2021/06/19 05:11:46;;;;;;;6.97;3.78;;;21.50;90.00;;;;;;5094206;28;20032;-77
2021/06/19 05:14:12;;;;;;;7.30;4.28;;;21.50;89.90;;;;;;5095367;28;20046;-77
2021/06/19 05:16:37;;;;;;;4.72;3.90;;;21.50;90.10;;;;;;5076913;28;20032;-77
2021/06/19 05:19:03;;;;;;;6.35;3.92;;;21.60;89.70;;;;;;5093895;28;20032;-76
2021/06/19 05:21:28;;;;;;;5.07;3.67;;;21.50;89.60;;;;;;5093800;28;20028;-76
2021/06/19 05:23:54;;;;;;;5.88;3.85;;;21.60;89.70;;;;;;5093827;28;20035;-76
2021/06/19 05:26:20;;;;;;;7.80;5.10;;;21.60;90.10;;;;;;5091363;28;20036;-76
2021/06/19 05:28:45;;;;;;;7.05;4.32;;;21.60;89.60;;;;;;5093346;28;20499;-78
2021/06/19 05:31:11;;;;;;;5.65;4.40;;;21.50;89.50;;;;;;5093157;28;20024;-77
2021/06/19 05:33:37;;;;;;;5.60;4.53;;;21.60;89.60;;;;;;5094511;28;20103;-76
2021/06/19 05:36:03;;;;;;;5.85;4.60;;;21.50;89.40;;;;;;5093541;28;20547;-76
2021/06/19 05:38:28;;;;;;;6.97;5.30;;;21.60;89.40;;;;;;5093288;28;20051;-76
2021/06/19 05:40:54;;;;;;;7.75;5.53;;;21.50;89.30;;;;;;5075778;28;20048;-75
2021/06/19 05:43:20;;;;;;;8.07;5.40;;;21.50;89.20;;;;;;5094576;28;20024;-75
2021/06/19 05:45:46;;;;;;;7.30;5.40;;;21.60;89.20;;;;;;5092790;28;20124;-77
2021/06/19 05:48:11;;;;;;;7.03;5.55;;;21.60;89.20;;;;;;5093092;28;20446;-75
2021/06/19 05:50:37;;;;;;;7.28;6.38;;;21.50;89.30;;;;;;5094592;28;20028;-75
2021/06/19 05:53:03;;;;;;;8.07;6.03;;;21.60;89.40;;;;;;5069684;28;20025;-75
2021/06/19 05:55:29;;;;;;;6.88;5.68;;;21.50;89.50;;;;;;5094772;28;20071;-76
2021/06/19 05:57:55;;;;;;;11.00;6.88;;;21.50;89.60;;;;;;5076426;28;20139;-76
2021/06/19 06:00:20;;;;;;;13.85;9.30;;;21.50;89.70;;;;;;5094631;28;20531;-76
2021/06/19 06:02:46;;;;;;;14.30;10.02;;;21.40;89.60;;;;;;5094597;28;20016;-76
2021/06/19 06:05:13;;;;;;;17.77;10.95;;;21.40;89.60;;;;;;5094233;28;20028;-78
2021/06/19 06:07:38;;;;;;;15.32;12.57;;;21.50;89.40;;;;;;5094314;28;20028;-76
2021/06/19 06:10:05;;;;;;;17.80;12.57;;;21.40;89.30;;;;;;5093909;28;20047;-76
2021/06/19 06:12:31;;;;;;;18.08;13.05;;;21.40;89.20;;;;;;5093154;28;20464;-75
2021/06/19 06:14:57;;;;;;;14.73;12.02;;;21.40;89.30;;;;;;5094282;28;20032;-76
2021/06/19 06:17:23;;;;;;;15.15;12.25;;;21.40;89.20;;;;;;5094265;28;20036;-76
2021/06/19 06:19:48;;;;;;;16.20;12.68;;;21.50;89.20;;;;;;5076448;28;20024;-77
2021/06/19 06:22:14;;;;;;;15.85;12.43;;;21.50;88.80;;;;;;5092948;28;20034;-76
2021/06/19 06:24:40;;;;;;;20.13;15.65;;;21.40;88.20;;;;;;5075633;28;20040;-76
2021/06/19 06:27:06;;;;;;;20.98;15.90;;;21.40;87.80;;;;;;5092761;28;20028;-75
2021/06/19 06:29:32;;;;;;;24.13;16.48;;;21.40;87.50;;;;;;5092827;28;20044;-75
2021/06/19 06:31:57;;;;;;;26.25;18.67;;;21.40;86.90;;;;;;5076136;28;20097;-76
2021/06/19 06:34:24;;;;;;;25.92;19.08;;;21.30;86.40;;;;;;5076037;28;20082;-78
2021/06/19 06:36:50;;;;;;;26.80;19.25;;;21.30;85.90;;;;;;5093982;28;20061;-76
2021/06/19 06:39:16;;;;;;;27.17;18.85;;;21.30;84.70;;;;;;5094428;28;20028;-78
2021/06/19 06:41:42;;;;;;;24.33;17.67;;;21.20;84.50;;;;;;5092603;28;20031;-76
2021/06/19 06:44:08;;;;;;;26.02;16.98;;;21.10;84.70;;;;;;5058573;28;20024;-77
2021/06/19 06:46:34;;;;;;;24.80;16.77;;;21.10;84.80;;;;;;5092709;28;20456;-74
2021/06/19 06:48:59;;;;;;;27.20;17.25;;;21.10;84.70;;;;;;5093787;28;20503;-74
2021/06/19 06:51:25;;;;;;;25.10;16.52;;;21.10;84.50;;;;;;5092799;28;20371;-77
2021/06/19 06:53:51;;;;;;;19.52;13.88;;;21.20;83.70;;;;;;5075994;28;20028;-76
2021/06/19 06:56:16;;;;;;;23.10;15.45;;;21.10;83.40;;;;;;5062130;28;20063;-76
2021/06/19 06:58:42;;;;;;;21.65;13.98;;;21.20;83.30;;;;;;5095720;28;20076;-74
2021/06/19 07:01:08;;;;;;;20.70;13.75;;;21.20;83.00;;;;;;5094184;28;20028;-75
2021/06/19 07:03:34;;;;;;;17.70;12.25;;;21.20;83.10;;;;;;5093726;28;20081;-76
2021/06/19 07:06:00;;;;;;;16.23;10.75;;;21.30;82.90;;;;;;5093981;28;20056;-75
2021/06/19 07:08:26;;;;;;;15.60;10.07;;;21.30;83.10;;;;;;5092712;28;20036;-76
2021/06/19 07:10:51;;;;;;;17.17;10.48;;;21.40;82.30;;;;;;5075374;28;20062;-76
2021/06/19 07:13:17;;;;;;;15.05;9.70;;;21.40;81.90;;;;;;5091946;28;20032;-79
2021/06/19 07:15:44;;;;;;;13.50;9.60;;;21.50;81.70;;;;;;5058832;28;20456;-76
2021/06/19 07:18:11;;;;;;;15.35;9.10;;;21.50;81.30;;;;;;5093733;28;20074;-78
2021/06/19 07:20:36;;;;;;;15.52;9.95;;;21.50;81.10;;;;;;5092236;28;20488;-78
2021/06/19 07:23:02;;;;;;;15.23;10.07;;;21.50;81.10;;;;;;5092054;28;20105;-77
2021/06/19 07:25:28;;;;;;;14.13;9.95;;;21.50;80.60;;;;;;5075028;28;20432;-76
2021/06/19 07:27:54;;;;;;;17.20;10.65;;;21.50;80.70;;;;;;5089941;28;20397;-76
2021/06/19 07:30:21;;;;;;;14.05;9.98;;;21.50;80.70;;;;;;5073740;28;20364;-76
2021/06/19 07:32:47;;;;;;;15.82;11.10;;;21.50;80.80;;;;;;5091591;28;20048;-74
2021/06/19 07:35:13;;;;;;;15.75;11.88;;;21.50;80.10;;;;;;5092173;28;20039;-76
2021/06/19 07:37:39;;;;;;;16.63;12.27;;;21.50;79.70;;;;;;5093770;28;20039;-75
2021/06/19 07:40:06;;;;;;;19.30;11.13;;;21.40;79.80;;;;;;5091662;28;20029;-75
2021/06/19 07:42:32;;;;;;;13.77;10.00;;;21.50;79.60;;;;;;5090614;28;20093;-76
2021/06/19 07:44:58;;;;;;;15.20;10.93;;;21.50;79.60;;;;;;5092406;28;20032;-77
2021/06/19 07:47:23;;;;;;;14.77;10.93;;;21.50;79.40;;;;;;5093406;28;20052;-76
2021/06/19 07:49:51;;;;;;;16.13;11.48;;;21.50;79.40;;;;;;5092310;28;20113;-77
2021/06/19 07:52:17;;;;;;;16.85;12.30;;;21.50;78.50;;;;;;5075729;28;20475;-75
2021/06/19 07:54:42;;;;;;;17.92;12.80;;;21.50;78.80;;;;;;5093488;28;20028;-79
2021/06/19 07:57:08;;;;;;;20.50;14.65;;;21.60;78.90;;;;;;5095961;28;20055;-78
2021/06/19 07:59:35;;;;;;;21.58;14.73;;;21.70;78.80;;;;;;5095844;28;20040;-74
2021/06/19 08:02:01;;;;;;;18.75;13.20;;;21.70;79.00;;;;;;5096061;28;20076;-77
2021/06/19 08:04:27;;;;;;;21.08;15.13;;;21.80;79.20;;;;;;5097195;28;20028;-77
2021/06/19 08:06:53;;;;;;;20.23;14.57;;;21.90;78.80;;;;;;5096741;28;20101;-76
2021/06/19 08:09:18;;;;;;;20.75;14.25;;;22.00;78.70;;;;;;5078988;28;20522;-75
2021/06/19 08:11:44;;;;;;;23.20;14.93;;;22.10;78.70;;;;;;5095857;28;20059;-77
2021/06/19 08:14:10;;;;;;;23.63;15.23;;;22.10;78.80;;;;;;5095403;28;20028;-76
2021/06/19 08:16:35;;;;;;;24.33;15.45;;;22.20;78.20;;;;;;5095616;28;20032;-77
2021/06/19 08:19:01;;;;;;;21.80;16.30;;;22.30;78.20;;;;;;5095889;28;20035;-75
2021/06/19 08:21:27;;;;;;;18.88;14.25;;;22.30;77.60;;;;;;5078669;28;20024;-76
2021/06/19 08:23:53;;;;;;;18.10;12.27;;;22.30;77.10;;;;;;5078549;28;20115;-74
2021/06/19 08:26:18;;;;;;;23.23;17.27;;;22.40;77.40;;;;;;5078603;28;20055;-77
2021/06/19 08:28:44;;;;;;;29.52;22.10;;;22.40;77.20;;;;;;5078504;28;20024;-76
2021/06/19 08:31:09;;;;;;;26.23;21.00;;;22.40;76.90;;;;;;5094934;28;20467;-77
2021/06/19 08:33:35;;;;;;;25.27;18.67;;;22.40;77.10;;;;;;5096907;28;20379;-81
2021/06/19 08:36:01;;;;;;;24.70;18.23;;;22.40;77.10;;;;;;5078027;28;20028;-78
2021/06/19 08:38:27;;;;;;;22.42;16.20;;;22.50;76.30;;;;;;5078049;28;20089;-79
2021/06/19 08:40:52;;;;;;;17.88;14.75;;;22.50;75.90;;;;;;5072855;28;20032;-77
2021/06/19 08:43:19;;;;;;;16.45;13.48;;;22.40;75.80;;;;;;5094206;28;20032;-77
2021/06/19 08:45:47;;;;;;;17.92;13.75;;;22.40;75.90;;;;;;5095991;28;20032;-74
2021/06/19 08:48:16;;;;;;;16.83;12.52;;;22.40;76.00;;;;;;5096217;28;20028;-76
2021/06/19 08:50:43;;;;;;;17.35;11.80;;;22.50;76.30;;;;;;5095785;28;20560;-75
2021/06/19 08:53:08;;;;;;;16.48;12.40;;;22.50;76.40;;;;;;5095300;28;20047;-80
2021/06/19 08:55:34;;;;;;;14.73;11.75;;;22.50;75.70;;;;;;5094156;28;20020;-77
2021/06/19 08:58:00;;;;;;;14.48;10.98;;;22.60;75.60;;;;;;5095328;28;20044;-76
2021/06/19 09:00:26;;;;;;;18.27;10.43;;;22.60;74.90;;;;;;5095460;28;20028;-83
2021/06/19 09:02:52;;;;;;;12.68;10.23;;;22.60;74.30;;;;;;5094171;28;20365;-74
2021/06/19 09:05:26;;;;;;;13.90;11.48;;;22.70;74.50;;;;;;5094251;28;20480;-83
2021/06/19 09:07:52;;;;;;;;;;;22.80;74.80;;;;;;5094885;28;20498;-78
2021/06/19 09:10:27;;;;;;;18.05;10.93;;;22.80;74.70;;;;;;5093928;28;20271;-77
2021/06/19 09:12:58;;;;;;;15.57;11.98;;;22.90;73.70;;;;;;5093706;28;20028;-78
2021/06/19 09:15:25;;;;;;;13.93;10.43;;;22.80;73.60;;;;;;5094931;28;20028;-76
2021/06/19 09:18:06;;;;;;;13.60;10.40;;;22.80;73.60;;;;;;5095095;28;20032;-76
2021/06/19 09:20:41;;;;;;;13.43;9.63;;;22.90;73.70;;;;;;5094007;28;20020;-75
2021/06/19 09:23:11;;;;;;;13.60;10.02;;;23.00;73.80;;;;;;5093907;28;20067;-77
2021/06/19 09:25:38;;;;;;;15.75;10.45;;;23.10;73.40;;;;;;5095040;28;20016;-75
2021/06/19 09:28:06;;;;;;;12.65;9.57;;;23.20;72.90;;;;;;5093654;28;20032;-75
2021/06/19 09:30:32;;;;;;;15.30;10.45;;;23.30;72.50;;;;;;5093490;28;20043;-75
2021/06/19 09:33:02;;;;;;;14.63;9.98;;;23.40;72.50;;;;;;5095850;28;20043;-77
2021/06/19 09:35:32;;;;;;;14.60;10.85;;;23.40;72.00;;;;;;5094324;28;20031;-79
2021/06/19 09:38:10;;;;;;;15.95;11.80;;;23.40;71.60;;;;;;5095064;28;20016;-77
2021/06/19 09:40:40;;;;;;;14.35;11.10;;;23.40;71.30;;;;;;5094815;28;20024;-78
2021/06/19 09:43:09;;;;;;;16.85;12.57;;;23.30;71.50;;;;;;5093546;28;20031;-77
2021/06/19 09:45:36;;;;;;;15.05;11.18;;;23.30;71.30;;;;;;5094509;28;20022;-76
2021/06/19 09:48:02;;;;;;;14.10;10.63;;;23.30;71.50;;;;;;5093200;28;20127;-75
2021/06/19 09:50:27;;;;;;;16.63;12.13;;;23.30;71.90;;;;;;5094814;28;20052;-79
2021/06/19 09:52:53;;;;;;;15.63;10.85;;;23.30;71.90;;;;;;5076680;28;20032;-80
2021/06/19 09:55:20;;;;;;;17.15;12.35;;;23.40;72.00;;;;;;5076321;28;20403;-78
2021/06/19 09:57:48;;;;;;;14.82;11.82;;;23.30;72.00;;;;;;5076232;28;20399;-78
2021/06/19 10:00:23;;;;;;;16.77;12.95;;;23.40;71.90;;;;;;5093362;28;20081;-78
2021/06/19 10:02:50;;;;;;;14.38;9.90;;;23.40;71.60;;;;;;5093565;28;20032;-78
2021/06/19 10:05:16;;;;;;;14.00;11.48;;;23.50;71.50;;;;;;5093665;28;20024;-82
2021/06/19 10:07:44;;;;;;;16.98;11.82;;;23.50;71.00;;;;;;5076181;28;20482;-81
2021/06/19 10:10:11;;;;;;;14.27;11.82;;;23.60;70.90;;;;;;5092879;28;20119;-78
2021/06/19 10:12:38;;;;;;;16.85;13.07;;;23.70;70.40;;;;;;5094252;28;20020;-76
2021/06/19 10:15:13;;;;;;;13.90;11.35;;;23.70;70.50;;;;;;5092720;28;20589;-78
2021/06/19 10:17:41;;;;;;;14.75;12.07;;;23.70;70.40;;;;;;5092015;28;20016;-79
2021/06/19 10:20:09;;;;;;;14.70;11.40;;;23.70;69.50;;;;;;5092908;28;20016;-80
2021/06/19 10:22:36;;;;;;;12.88;10.32;;;23.80;69.80;;;;;;5092172;28;20077;-77
2021/06/19 10:25:09;;;;;;;12.57;10.77;;;23.90;69.80;;;;;;5093126;28;20032;-80
2021/06/19 10:27:43;;;;;;;16.45;11.98;;;23.90;69.20;;;;;;5093339;28;20372;-78
2021/06/19 10:30:11;;;;;;;14.90;11.43;;;23.90;68.70;;;;;;5092707;28;20069;-77
2021/06/19 10:32:48;;;;;;;15.00;12.02;;;24.00;69.10;;;;;;5092879;28;20356;-77
2021/06/19 10:35:17;;;;;;;14.80;12.20;;;24.10;68.90;;;;;;5093923;28;20593;-77
2021/06/19 10:37:44;;;;;;;12.30;10.15;;;24.20;69.00;;;;;;5093580;28;20031;-76
2021/06/19 10:40:17;;;;;;;13.52;10.70;;;24.50;68.60;;;;;;5092450;28;20048;-77
2021/06/19 10:42:43;;;;;;;13.77;11.38;;;24.70;68.00;;;;;;5092220;28;20024;-77
2021/06/19 10:45:23;;;;;;;14.32;11.07;;;25.10;68.00;;;;;;5093785;28;20498;-76
2021/06/19 10:48:10;;;;;;;17.70;12.95;;;25.30;66.50;;;;;;5093455;28;20042;-77
2021/06/19 10:50:37;;;;;;;15.00;12.23;;;25.30;65.50;;;;;;5092468;28;20483;-76
2021/06/19 10:53:06;;;;;;;12.35;10.23;;;25.20;65.30;;;;;;5093484;28;20383;-77
2021/06/19 10:55:34;;;;;;;12.10;9.02;;;25.30;65.50;;;;;;5092099;28;20383;-79
2021/06/19 10:58:03;;;;;;;11.00;8.15;;;25.30;65.40;;;;;;5066315;28;20040;-77
2021/06/19 11:00:46;;;;;;;11.00;9.55;;;25.30;65.30;;;;;;5090851;28;20020;-76
2021/06/19 11:03:13;;;;;;;11.07;9.07;;;25.40;65.10;;;;;;5092121;28;20391;-78
2021/06/19 11:05:45;;;;;;;11.55;10.32;;;25.30;65.10;;;;;;5092435;28;20036;-79
2021/06/19 11:08:15;;;;;;;14.35;10.82;;;25.30;65.00;;;;;;5093727;28;20024;-77
2021/06/19 11:10:49;;;;;;;12.35;10.32;;;25.20;65.10;;;;;;5093009;28;20059;-78
2021/06/19 11:13:27;;;;;;;13.07;11.43;;;25.20;65.00;;;;;;5092857;28;20024;-79
2021/06/19 11:15:53;;;;;;;12.48;11.18;;;25.20;65.10;;;;;;5094057;28;20467;-79
2021/06/19 11:18:47;;;;;;;13.25;11.88;;;25.20;65.10;;;;;;5075435;28;20032;-78
2021/06/19 11:21:19;;;;;;;13.73;11.35;;;25.20;64.80;;;;;;5093640;28;20028;-76
2021/06/19 11:24:03;;;;;;;16.27;12.40;;;25.30;64.80;;;;;;5093497;28;20020;-80
2021/06/19 11:27:01;;;;;;;14.02;12.05;;;25.40;64.70;;;;;;5072013;28;20078;-79
2021/06/19 11:29:45;;;;;;;15.77;12.82;;;25.40;64.70;;;;;;5086589;28;20024;-79
2021/06/19 11:32:34;;;;;;;14.82;13.32;;;25.40;64.40;;;;;;5102325;28;20028;-79
2021/06/19 11:35:20;;;;;;;16.50;12.95;;;25.40;64.30;;;;;;5094916;28;20027;-78
2021/06/19 11:37:53;;;;;;;15.07;13.15;;;25.50;64.20;;;;;;5092519;28;20028;-79
2021/06/19 11:40:37;;;;;;;15.90;13.73;;;25.40;64.10;;;;;;5079231;28;20025;-81
2021/06/19 11:43:05;;;;;;;15.85;14.15;;;25.40;64.10;;;;;;5097310;28;20115;-76
2021/06/19 11:45:31;;;;;;;16.10;14.43;;;25.30;64.10;;;;;;5097365;28;20433;-78
2021/06/19 11:48:09;;;;;;;15.48;13.65;;;25.20;64.20;;;;;;5079052;28;20024;-80
2021/06/19 11:50:40;;;;;;;15.45;13.85;;;25.30;64.70;;;;;;5096106;28;20113;-77
2021/06/19 11:53:26;;;;;;;16.55;14.82;;;25.30;64.70;;;;;;5096402;28;20034;-76
2021/06/19 11:56:05;;;;;;;17.08;15.15;;;25.40;64.30;;;;;;5079168;28;20548;-74
2021/06/19 11:58:48;;;;;;;16.08;14.38;;;25.40;64.30;;;;;;5096310;28;20044;-75
2021/06/19 12:01:19;;;;;;;15.30;13.35;;;25.50;64.20;;;;;;5095955;28;20028;-76
2021/06/19 12:03:45;;;;;;;15.18;13.55;;;25.60;64.30;;;;;;5088592;28;20031;-75
2021/06/19 12:06:13;;;;;;;16.42;14.73;;;25.70;64.20;;;;;;5096786;28;20054;-79
2021/06/19 12:08:40;;;;;;;16.40;13.73;;;25.80;64.00;;;;;;5095926;28;20041;-79
2021/06/19 12:11:06;;;;;;;16.40;14.70;;;25.90;63.80;;;;;;5095036;28;20122;-76
2021/06/19 12:13:35;;;;;;;15.48;13.88;;;26.00;64.00;;;;;;5096002;28;20618;-78
2021/06/19 12:16:03;;;;;;;16.00;13.27;;;26.00;63.10;;;;;;5090496;28;20032;-80
2021/06/19 12:18:29;;;;;;;16.90;13.85;;;26.00;63.00;;;;;;5095674;28;20016;-78
2021/06/19 12:21:04;;;;;;;15.73;14.13;;;26.00;62.90;;;;;;5094986;28;20035;-77
2021/06/19 12:23:34;;;;;;;15.82;14.18;;;26.00;62.60;;;;;;5095215;28;20391;-76
2021/06/19 12:26:08;;;;;;;16.35;14.52;;;25.90;62.50;;;;;;5095150;28;20039;-78
2021/06/19 12:28:45;;;;;;;16.15;14.55;;;25.90;63.00;;;;;;5095242;28;20020;-78
2021/06/19 12:31:13;;;;;;;15.65;14.00;;;25.70;62.30;;;;;;5094874;28;20413;-78
2021/06/19 12:33:39;;;;;;;15.63;14.02;;;25.70;62.50;;;;;;5096936;28;20020;-76
2021/06/19 12:36:08;;;;;;;17.05;15.02;;;25.70;62.40;;;;;;5096098;28;20384;-76
2021/06/19 12:38:35;;;;;;;15.30;13.73;;;25.60;62.30;;;;;;5094019;28;20028;-79
2021/06/19 12:41:03;;;;;;;16.13;14.52;;;25.60;62.30;;;;;;5094883;28;20048;-77